createdAt,value
2023-03-04T00:01:36.856Z,2.30
2023-03-04T00:04:04.747Z,2.30
2023-03-04T00:06:32.712Z,2.30
2023-03-04T00:09:00.646Z,2.30
2023-03-04T00:11:28.533Z,2.30
2023-03-04T00:13:56.819Z,2.30
2023-03-04T00:16:27.364Z,2.30
2023-03-04T00:18:55.528Z,2.20
2023-03-04T00:21:24.251Z,2.20
2023-03-04T00:23:52.448Z,2.20
2023-03-04T00:26:20.401Z,2.20
2023-03-04T00:28:48.886Z,2.30
2023-03-04T00:31:17.145Z,2.30
2023-03-04T00:33:46.353Z,2.40
2023-03-04T00:36:14.243Z,2.50
2023-03-04T00:38:42.169Z,2.50
2023-03-04T00:41:10.023Z,2.50
2023-03-04T00:43:38.016Z,2.50
2023-03-04T00:46:07.086Z,2.60
2023-03-04T00:48:35.145Z,2.60
2023-03-04T00:51:04.634Z,2.60
2023-03-04T00:53:32.608Z,2.60
2023-03-04T00:56:00.511Z,2.50
2023-03-04T00:58:28.412Z,2.50
2023-03-04T01:00:56.462Z,2.50
2023-03-04T01:03:26.891Z,2.50
2023-03-04T01:05:54.835Z,2.50
2023-03-04T01:08:24.995Z,2.40
2023-03-04T01:10:54.796Z,2.40
2023-03-04T01:13:22.669Z,2.40
2023-03-04T01:15:51.137Z,2.40
2023-03-04T01:18:19.025Z,2.40
2023-03-04T01:20:46.946Z,2.30
2023-03-04T01:23:14.841Z,2.30
2023-03-04T01:25:44.600Z,2.30
2023-03-04T01:28:12.511Z,2.20
2023-03-04T01:30:42.659Z,2.30
2023-03-04T01:33:10.584Z,2.30
2023-03-04T01:35:38.511Z,2.30
2023-03-04T01:38:06.555Z,2.30
2023-03-04T01:40:34.634Z,2.30
2023-03-04T01:43:04.164Z,2.30
2023-03-04T01:45:33.334Z,2.20
2023-03-04T01:48:01.350Z,2.20
2023-03-04T01:50:33.850Z,2.20
2023-03-04T01:53:02.363Z,2.20
2023-03-04T01:55:31.196Z,2.20
2023-03-04T01:57:59.282Z,2.30
2023-03-04T02:00:33.711Z,2.20
2023-03-04T02:03:07.186Z,2.10
2023-03-04T02:05:36.776Z,2.00
2023-03-04T02:08:05.587Z,2.00
2023-03-04T02:10:34.700Z,2.00
2023-03-04T02:13:03.648Z,2.00
2023-03-04T02:15:33.375Z,1.90
2023-03-04T02:18:02.005Z,2.00
2023-03-04T02:20:38.715Z,1.90
2023-03-04T02:23:13.008Z,1.90
2023-03-04T02:25:47.210Z,2.00
2023-03-04T02:28:17.032Z,2.00
2023-03-04T02:30:45.211Z,2.00
2023-03-04T02:33:18.565Z,2.00
2023-03-04T02:35:47.110Z,1.90
2023-03-04T02:38:15.361Z,1.80
2023-03-04T02:40:47.562Z,1.70
2023-03-04T02:43:17.368Z,1.60
2023-03-04T02:45:47.188Z,1.60
2023-03-04T02:48:17.562Z,1.70
2023-03-04T02:50:48.177Z,1.70
2023-03-04T02:53:16.348Z,1.60
2023-03-04T02:55:46.361Z,1.60
2023-03-04T02:58:15.540Z,1.50
2023-03-04T03:00:45.029Z,1.40
2023-03-04T03:03:13.200Z,1.40
2023-03-04T03:05:41.735Z,1.50
2023-03-04T03:08:09.930Z,1.40
2023-03-04T03:10:39.575Z,1.40
2023-03-04T03:13:08.299Z,1.30
2023-03-04T03:15:38.950Z,1.30
2023-03-04T03:18:08.194Z,1.30
2023-03-04T03:20:36.100Z,1.30
2023-03-04T03:23:04.182Z,1.30
2023-03-04T03:25:32.176Z,1.30
2023-03-04T03:28:00.092Z,1.30
2023-03-04T03:30:28.363Z,1.30
2023-03-04T03:32:56.237Z,1.40
2023-03-04T03:35:25.587Z,1.30
2023-03-04T03:37:53.676Z,1.30
2023-03-04T03:40:21.521Z,1.20
2023-03-04T03:42:49.503Z,1.20
2023-03-04T03:45:17.529Z,1.10
2023-03-04T03:47:45.498Z,1.10
2023-03-04T03:50:13.706Z,1.10
2023-03-04T03:52:42.929Z,1.00
2023-03-04T03:55:11.308Z,1.00
2023-03-04T03:57:39.246Z,1.10
2023-03-04T04:00:09.592Z,1.10
2023-03-04T04:02:40.589Z,1.10
2023-03-04T04:05:10.180Z,1.10
2023-03-04T04:07:38.562Z,1.00
2023-03-04T04:10:08.804Z,1.00
2023-03-04T04:12:36.703Z,1.00
2023-03-04T04:15:05.301Z,0.90
2023-03-04T04:17:33.252Z,0.90
2023-03-04T04:20:01.162Z,0.90
2023-03-04T04:22:29.075Z,0.80
2023-03-04T04:24:56.990Z,0.80
2023-03-04T04:27:26.231Z,0.80
2023-03-04T04:29:54.202Z,0.70
2023-03-04T04:32:22.157Z,0.70
2023-03-04T04:34:50.049Z,0.70
2023-03-04T04:37:17.890Z,0.60
2023-03-04T04:39:45.831Z,0.60
2023-03-04T04:42:13.836Z,0.60
2023-03-04T04:44:43.089Z,0.60
2023-03-04T04:47:11.415Z,0.60
2023-03-04T04:49:39.301Z,0.60
2023-03-04T04:52:07.324Z,0.60
2023-03-04T04:54:35.194Z,0.60
2023-03-04T04:57:03.125Z,0.70
2023-03-04T04:59:31.003Z,0.60
2023-03-04T05:02:00.312Z,0.60
2023-03-04T05:04:28.558Z,0.50
2023-03-04T05:06:56.818Z,0.40
2023-03-04T05:09:24.714Z,0.40
2023-03-04T05:11:52.668Z,0.40
2023-03-04T05:14:20.841Z,0.30
2023-03-04T05:16:48.750Z,0.30
2023-03-04T05:19:18.155Z,0.30
2023-03-04T05:21:46.045Z,0.30
2023-03-04T05:24:14.266Z,0.30
2023-03-04T05:26:42.870Z,0.30
2023-03-04T05:29:10.764Z,0.30
2023-03-04T05:31:38.768Z,0.30
2023-03-04T05:34:06.933Z,0.30
2023-03-04T05:36:36.327Z,0.30
2023-03-04T05:39:04.431Z,0.30
2023-03-04T05:41:32.447Z,0.30
2023-03-04T05:44:00.386Z,0.30
2023-03-04T05:46:28.437Z,0.30
2023-03-04T05:48:56.392Z,0.30
2023-03-04T05:51:24.802Z,0.20
2023-03-04T05:53:54.016Z,0.20
2023-03-04T05:56:22.233Z,0.10
2023-03-04T05:58:50.309Z,0.10
2023-03-04T06:01:19.171Z,0.10
2023-03-04T06:03:48.527Z,0.10
2023-03-04T06:06:16.687Z,0.20
2023-03-04T06:08:44.774Z,0.20
2023-03-04T06:11:13.971Z,0.20
2023-03-04T06:13:41.927Z,0.20
2023-03-04T06:16:10.388Z,0.20
2023-03-04T06:18:39.096Z,0.20
2023-03-04T06:21:07.377Z,0.20
2023-03-04T06:23:35.330Z,0.30
2023-03-04T06:26:03.533Z,0.30
2023-03-04T06:28:32.748Z,0.30
2023-03-04T06:31:01.133Z,0.40
2023-03-04T06:33:28.973Z,0.40
2023-03-04T06:35:57.971Z,0.50
2023-03-04T06:38:26.913Z,0.50
2023-03-04T06:40:57.280Z,0.40
2023-03-04T06:43:26.241Z,0.50
2023-03-04T06:45:55.492Z,0.50
2023-03-04T06:48:23.538Z,0.50
2023-03-04T06:50:51.460Z,0.60
2023-03-04T06:53:19.407Z,0.70
2023-03-04T06:55:47.974Z,0.80
2023-03-04T06:58:17.335Z,0.90
2023-03-04T07:00:45.367Z,1.00
2023-03-04T07:03:14.738Z,0.90
2023-03-04T07:05:44.089Z,1.00
2023-03-04T07:08:12.097Z,1.00
2023-03-04T07:10:40.083Z,0.90
2023-03-04T07:13:07.992Z,0.70
2023-03-04T07:15:36.202Z,0.80
2023-03-04T07:18:04.170Z,0.90
2023-03-04T07:20:33.613Z,0.80
2023-03-04T07:23:01.548Z,0.80
2023-03-04T07:25:29.734Z,0.80
2023-03-04T07:27:57.638Z,0.80
2023-03-04T07:30:25.550Z,0.80
2023-03-04T07:32:53.491Z,1.00
2023-03-04T07:35:21.447Z,1.00
2023-03-04T07:37:50.759Z,1.20
2023-03-04T07:40:18.849Z,1.30
2023-03-04T07:42:50.926Z,1.50
2023-03-04T07:45:19.069Z,1.50
2023-03-04T07:47:47.334Z,1.60
2023-03-04T07:50:17.976Z,1.70
2023-03-04T07:52:47.855Z,1.90
2023-03-04T07:55:17.813Z,1.90
2023-03-04T07:57:47.662Z,1.80
2023-03-04T08:00:17.690Z,1.90
2023-03-04T08:02:45.643Z,1.80
2023-03-04T08:05:13.532Z,1.90
2023-03-04T08:07:41.495Z,1.90
2023-03-04T08:10:10.357Z,1.90
2023-03-04T08:12:39.658Z,1.90
2023-03-04T08:15:08.864Z,1.90
2023-03-04T08:17:38.832Z,2.00
2023-03-04T08:20:07.764Z,2.10
2023-03-04T08:22:35.657Z,2.10
2023-03-04T08:25:03.540Z,2.10
2023-03-04T08:27:31.465Z,2.20
2023-03-04T08:30:00.741Z,2.20
2023-03-04T08:32:28.816Z,2.20
2023-03-04T08:34:56.988Z,2.30
2023-03-04T08:37:24.872Z,2.40
2023-03-04T08:39:52.835Z,2.40
2023-03-04T08:42:20.706Z,2.30
2023-03-04T08:44:48.616Z,2.30
2023-03-04T08:47:17.886Z,2.30
2023-03-04T08:49:45.769Z,2.50
2023-03-04T08:52:13.686Z,2.60
2023-03-04T08:54:41.582Z,2.60
2023-03-04T08:57:09.448Z,2.60
2023-03-04T08:59:38.545Z,2.70
2023-03-04T09:02:06.559Z,2.60
2023-03-04T09:04:36.637Z,2.50
2023-03-04T09:07:04.523Z,2.40
2023-03-04T09:09:32.412Z,2.30
2023-03-04T09:12:00.299Z,2.40
2023-03-04T09:14:28.416Z,2.50
2023-03-04T09:16:56.321Z,2.60
2023-03-04T09:19:24.261Z,2.60
2023-03-04T09:21:55.291Z,2.80
2023-03-04T09:24:23.511Z,2.80
2023-03-04T09:26:52.546Z,2.70
2023-03-04T09:29:20.685Z,2.80
2023-03-04T09:31:48.679Z,2.80
2023-03-04T09:34:16.607Z,2.80
2023-03-04T09:36:44.582Z,2.90
2023-03-04T09:39:13.961Z,2.90
2023-03-04T09:41:45.140Z,2.80
2023-03-04T09:44:22.763Z,2.80
2023-03-04T09:46:52.020Z,2.60
2023-03-04T09:49:21.773Z,2.60
2023-03-04T09:51:58.483Z,2.70
2023-03-04T09:54:47.365Z,2.80
2023-03-04T09:57:25.079Z,2.80
2023-03-04T10:00:01.545Z,2.80
2023-03-04T10:02:47.884Z,2.90
2023-03-04T10:05:20.758Z,3.20
2023-03-04T10:07:59.187Z,3.40
2023-03-04T10:10:33.048Z,3.60
2023-03-04T10:13:03.942Z,3.80
2023-03-04T10:15:37.616Z,3.60
2023-03-04T10:18:15.360Z,3.50
2023-03-04T10:20:53.311Z,3.50
2023-03-04T10:23:25.437Z,3.60
2023-03-04T10:25:55.427Z,3.70
2023-03-04T10:28:26.919Z,3.70
2023-03-04T10:31:00.756Z,3.80
2023-03-04T10:33:31.524Z,3.70
2023-03-04T10:36:03.546Z,3.70
2023-03-04T10:38:33.452Z,3.80
2023-03-04T10:41:03.207Z,3.80
2023-03-04T10:43:31.234Z,4.00
2023-03-04T10:46:01.275Z,3.80
2023-03-04T10:48:31.868Z,3.60
2023-03-04T10:51:14.503Z,3.60
2023-03-04T10:53:44.152Z,3.80
2023-03-04T10:56:36.073Z,4.00
2023-03-04T10:59:43.816Z,4.00
2023-03-04T11:02:23.303Z,4.00
2023-03-04T11:04:53.777Z,4.00
2023-03-04T11:07:22.368Z,4.00
2023-03-04T11:09:51.339Z,4.10
2023-03-04T11:12:22.374Z,4.20
2023-03-04T11:14:52.621Z,4.30
2023-03-04T11:17:26.047Z,4.50
2023-03-04T11:19:58.252Z,4.50
2023-03-04T11:22:28.931Z,4.50
2023-03-04T11:25:00.838Z,4.40
2023-03-04T11:27:42.918Z,4.50
2023-03-04T11:30:27.710Z,4.40
2023-03-04T11:33:03.334Z,4.50
2023-03-04T11:35:39.590Z,4.20
2023-03-04T11:38:15.939Z,4.20
2023-03-04T11:40:46.166Z,4.30
2023-03-04T11:43:18.620Z,4.30
2023-03-04T11:46:05.568Z,4.20
2023-03-04T11:48:49.608Z,4.20
2023-03-04T11:51:26.773Z,4.20
2023-03-04T11:54:12.964Z,4.30
2023-03-04T11:56:45.173Z,4.30
2023-03-04T11:59:35.812Z,4.40
2023-03-04T12:02:14.398Z,4.20
2023-03-04T12:05:04.535Z,4.20
2023-03-04T12:07:50.208Z,4.30
2023-03-04T12:10:27.953Z,4.30
2023-03-04T12:13:35.543Z,4.40
2023-03-04T12:16:16.226Z,4.50
2023-03-04T12:18:58.912Z,4.60
2023-03-04T12:21:41.183Z,4.10
2023-03-04T12:24:27.635Z,4.00
2023-03-04T12:27:01.526Z,4.20
2023-03-04T12:29:40.220Z,4.20
2023-03-04T12:32:18.701Z,4.30
2023-03-04T12:35:01.865Z,4.40
2023-03-04T12:37:56.628Z,4.40
2023-03-04T12:40:29.346Z,4.40
2023-03-04T12:43:09.465Z,4.40
2023-03-04T12:45:44.772Z,4.30
2023-03-04T12:48:25.258Z,4.50
2023-03-04T12:51:04.855Z,4.50
2023-03-04T12:53:38.547Z,4.50
2023-03-04T12:56:10.282Z,4.50
2023-03-04T12:58:38.593Z,4.60
2023-03-04T13:01:15.882Z,4.60
2023-03-04T13:03:54.977Z,4.50
2023-03-04T13:06:36.468Z,4.50
2023-03-04T13:09:13.624Z,4.50
2023-03-04T13:11:55.763Z,4.30
2023-03-04T13:14:29.867Z,4.20
2023-03-04T13:17:01.601Z,4.30
2023-03-04T13:19:49.564Z,4.40
2023-03-04T13:22:42.885Z,4.30
2023-03-04T13:25:40.165Z,4.20
2023-03-04T13:28:20.722Z,4.20
2023-03-04T13:31:24.350Z,4.20
2023-03-04T13:34:06.011Z,4.30
2023-03-04T13:37:00.187Z,4.20
2023-03-04T13:39:37.320Z,4.20
2023-03-04T13:42:21.178Z,4.20
2023-03-04T13:45:00.715Z,4.30
2023-03-04T13:47:42.565Z,4.20
2023-03-04T13:50:31.613Z,4.30
2023-03-04T13:53:23.780Z,4.50
2023-03-04T13:56:15.278Z,4.60
2023-03-04T13:58:43.457Z,4.60
2023-03-04T14:01:24.980Z,4.60
2023-03-04T14:03:52.911Z,4.60
2023-03-04T14:06:22.832Z,4.50
2023-03-04T14:08:53.705Z,4.40
2023-03-04T14:11:29.274Z,4.20
2023-03-04T14:13:59.913Z,4.20
2023-03-04T14:16:30.591Z,4.30
2023-03-04T14:19:03.641Z,4.40
2023-03-04T14:21:32.472Z,4.50
2023-03-04T14:24:07.777Z,4.40
2023-03-04T14:26:36.157Z,4.50
2023-03-04T14:29:04.114Z,4.40
2023-03-04T14:31:35.731Z,4.40
2023-03-04T14:34:04.270Z,4.20
2023-03-04T14:36:34.611Z,4.30
2023-03-04T14:39:06.723Z,4.30
2023-03-04T14:41:36.452Z,4.20
2023-03-04T14:44:13.187Z,4.20
2023-03-04T14:47:00.574Z,4.20
2023-03-04T14:49:36.845Z,4.10
2023-03-04T14:52:05.449Z,4.10
2023-03-04T14:54:37.657Z,4.10
2023-03-04T14:57:26.467Z,4.10
2023-03-04T14:59:55.223Z,4.10
2023-03-04T15:02:31.430Z,4.10
2023-03-04T15:05:02.633Z,4.20
2023-03-04T15:07:36.493Z,4.00
2023-03-04T15:10:12.535Z,3.90
2023-03-04T15:12:40.718Z,4.00
2023-03-04T15:15:34.152Z,4.00
2023-03-04T15:18:03.343Z,4.00
2023-03-04T15:20:32.874Z,4.10
2023-03-04T15:23:07.011Z,4.20
2023-03-04T15:25:36.817Z,4.30
2023-03-04T15:28:05.385Z,4.30
2023-03-04T15:30:35.226Z,4.30
2023-03-04T15:33:03.141Z,4.40
2023-03-04T15:35:33.501Z,4.40
2023-03-04T15:38:02.239Z,4.40
2023-03-04T15:40:33.018Z,4.40
2023-03-04T15:43:05.030Z,4.30
2023-03-04T15:45:36.290Z,4.20
2023-03-04T15:48:07.995Z,4.30
2023-03-04T15:50:37.950Z,4.30
2023-03-04T15:53:09.054Z,4.40
2023-03-04T15:55:37.410Z,4.50
2023-03-04T15:58:07.740Z,4.50
2023-03-04T16:00:36.156Z,4.50
2023-03-04T16:03:04.505Z,4.60
2023-03-04T16:05:34.951Z,4.50
2023-03-04T16:08:03.011Z,4.50
2023-03-04T16:10:32.115Z,4.50
2023-03-04T16:13:00.387Z,4.60
2023-03-04T16:15:31.254Z,4.60
2023-03-04T16:17:59.697Z,4.50
2023-03-04T16:20:30.587Z,4.40
2023-03-04T16:23:00.803Z,4.40
2023-03-04T16:25:30.190Z,4.40
2023-03-04T16:28:02.561Z,4.40
2023-03-04T16:30:32.472Z,4.40
2023-03-04T16:33:00.347Z,4.50
2023-03-04T16:35:29.150Z,4.50
2023-03-04T16:37:58.556Z,4.40
2023-03-04T16:40:28.934Z,4.40
2023-03-04T16:42:57.263Z,4.40
2023-03-04T16:45:27.285Z,4.40
2023-03-04T16:47:56.757Z,4.50
2023-03-04T16:50:28.252Z,4.40
2023-03-04T16:52:57.120Z,4.40
2023-03-04T16:55:27.094Z,4.50
2023-03-04T16:57:55.850Z,4.40
2023-03-04T17:00:25.356Z,4.40
2023-03-04T17:02:57.063Z,4.30
2023-03-04T17:05:27.160Z,4.40
2023-03-04T17:07:55.113Z,4.40
2023-03-04T17:10:23.541Z,4.30
2023-03-04T17:12:52.011Z,4.30
2023-03-04T17:15:20.287Z,4.40
2023-03-04T17:17:48.853Z,4.50
2023-03-04T17:20:19.328Z,4.40
2023-03-04T17:22:47.310Z,4.50
2023-03-04T17:25:15.290Z,4.50
2023-03-04T17:27:44.290Z,4.50
2023-03-04T17:30:14.579Z,4.50
2023-03-04T17:32:42.536Z,4.50
2023-03-04T17:35:11.864Z,4.60
2023-03-04T17:37:41.495Z,4.60
2023-03-04T17:40:14.129Z,4.70
2023-03-04T17:42:42.771Z,4.70
2023-03-04T17:45:11.982Z,4.70
2023-03-04T17:47:40.208Z,4.70
2023-03-04T17:50:09.101Z,4.70
2023-03-04T17:52:37.066Z,4.70
2023-03-04T17:55:07.304Z,4.70
2023-03-04T17:57:37.108Z,4.70
2023-03-04T18:00:05.961Z,4.60
2023-03-04T18:02:33.990Z,4.70
2023-03-04T18:05:06.627Z,4.60
2023-03-04T18:07:34.692Z,4.50
2023-03-04T18:10:02.694Z,4.50
2023-03-04T18:12:32.195Z,4.40
2023-03-04T18:15:00.416Z,4.50
2023-03-04T18:17:28.509Z,4.50
2023-03-04T18:19:56.778Z,4.40
2023-03-04T18:22:25.061Z,4.30
2023-03-04T18:24:53.048Z,4.30
2023-03-04T18:27:21.975Z,4.20
2023-03-04T18:29:51.374Z,4.20
2023-03-04T18:32:20.710Z,4.20
2023-03-04T18:34:48.963Z,4.20
2023-03-04T18:37:17.172Z,4.20
2023-03-04T18:39:45.316Z,4.10
2023-03-04T18:42:13.546Z,4.10
2023-03-04T18:44:41.726Z,4.10
2023-03-04T18:47:11.702Z,4.00
2023-03-04T18:49:41.330Z,4.10
2023-03-04T18:52:09.454Z,4.00
2023-03-04T18:54:37.494Z,4.00
2023-03-04T18:57:10.298Z,4.00
2023-03-04T18:59:42.609Z,4.00
2023-03-04T19:02:20.053Z,4.00
2023-03-04T19:04:48.998Z,4.10
2023-03-04T19:07:17.700Z,4.20
2023-03-04T19:09:45.685Z,4.30
2023-03-04T19:12:14.210Z,4.40
2023-03-04T19:14:42.122Z,4.40
2023-03-04T19:17:11.263Z,4.40
2023-03-04T19:19:40.898Z,4.30
2023-03-04T19:22:11.327Z,4.30
2023-03-04T19:24:44.480Z,4.20
2023-03-04T19:27:14.055Z,4.30
2023-03-04T19:29:42.566Z,4.30
2023-03-04T19:32:11.069Z,4.30
2023-03-04T19:34:40.435Z,4.20
2023-03-04T19:37:08.863Z,4.10
2023-03-04T19:39:36.866Z,4.10
2023-03-04T19:42:05.051Z,4.00
2023-03-04T19:44:33.257Z,4.00
2023-03-04T19:47:01.471Z,3.90
2023-03-04T19:49:29.474Z,3.90
2023-03-04T19:51:58.896Z,3.90
2023-03-04T19:54:27.714Z,3.90
2023-03-04T19:56:57.615Z,3.90
2023-03-04T19:59:25.721Z,3.90
2023-03-04T20:01:54.350Z,3.90
2023-03-04T20:04:28.807Z,3.90
2023-03-04T20:06:58.221Z,3.90
2023-03-04T20:09:26.248Z,3.90
2023-03-04T20:11:58.793Z,4.00
2023-03-04T20:14:27.794Z,4.00
2023-03-04T20:16:59.143Z,3.90
2023-03-04T20:19:27.180Z,4.00
2023-03-04T20:21:56.313Z,3.90
2023-03-04T20:24:26.375Z,4.00
2023-03-04T20:26:54.351Z,4.00
2023-03-04T20:29:22.457Z,4.00
2023-03-04T20:31:50.692Z,4.00
2023-03-04T20:34:20.878Z,4.00
2023-03-04T20:36:49.050Z,4.00
2023-03-04T20:39:28.229Z,4.00
2023-03-04T20:41:59.122Z,4.00
2023-03-04T20:44:27.430Z,4.00
2023-03-04T20:46:55.641Z,3.90
2023-03-04T20:49:25.955Z,3.80
2023-03-04T20:51:55.846Z,3.80
2023-03-04T20:54:23.854Z,3.90
2023-03-04T20:56:52.297Z,3.80
2023-03-04T20:59:21.767Z,3.80
2023-03-04T21:01:50.241Z,3.90
2023-03-04T21:04:19.404Z,3.80
2023-03-04T21:06:48.462Z,3.80
2023-03-04T21:09:18.116Z,3.80
2023-03-04T21:11:46.362Z,3.80
2023-03-04T21:14:16.152Z,3.80
2023-03-04T21:16:45.380Z,3.80
2023-03-04T21:19:17.956Z,4.00
2023-03-04T21:21:46.640Z,4.00
2023-03-04T21:24:16.543Z,4.10
2023-03-04T21:26:45.330Z,4.10
2023-03-04T21:29:13.696Z,4.10
2023-03-04T21:31:44.271Z,4.10
2023-03-04T21:34:17.941Z,4.10
2023-03-04T21:36:45.977Z,4.10
2023-03-04T21:39:16.690Z,4.10
2023-03-04T21:41:44.714Z,4.20
2023-03-04T21:44:22.690Z,4.20
2023-03-04T21:46:57.132Z,4.20
2023-03-04T21:49:27.010Z,4.10
2023-03-04T21:51:55.001Z,4.10
2023-03-04T21:54:23.429Z,4.10
2023-03-04T21:56:51.535Z,4.10
2023-03-04T21:59:19.466Z,4.10
2023-03-04T22:01:47.563Z,4.00
2023-03-04T22:04:15.632Z,4.00
2023-03-04T22:06:44.859Z,4.00
2023-03-04T22:09:13.147Z,4.00
2023-03-04T22:11:41.209Z,4.00
2023-03-04T22:14:09.126Z,4.00
2023-03-04T22:16:48.869Z,4.00
2023-03-04T22:19:22.276Z,4.00
2023-03-04T22:21:52.329Z,4.10
2023-03-04T22:24:20.422Z,4.10
2023-03-04T22:26:48.433Z,4.20
2023-03-04T22:29:16.532Z,4.10
2023-03-04T22:31:44.743Z,4.10
2023-03-04T22:34:14.771Z,4.00
2023-03-04T22:36:44.621Z,4.00
2023-03-04T22:39:19.136Z,4.10
2023-03-04T22:41:47.208Z,4.10
2023-03-04T22:44:15.408Z,4.00
2023-03-04T22:46:43.695Z,4.00
2023-03-04T22:49:14.318Z,4.00
2023-03-04T22:51:44.701Z,3.90
2023-03-04T22:54:15.726Z,3.90
2023-03-04T22:56:43.720Z,4.00
2023-03-04T22:59:12.039Z,4.00
2023-03-04T23:01:40.071Z,4.00
2023-03-04T23:04:08.044Z,4.00
2023-03-04T23:06:37.555Z,4.00
2023-03-04T23:09:05.840Z,4.00
2023-03-04T23:11:36.516Z,4.10
2023-03-04T23:14:06.870Z,4.20
2023-03-04T23:16:37.316Z,4.30
2023-03-04T23:19:05.990Z,4.30
2023-03-04T23:21:34.595Z,4.30
2023-03-04T23:24:03.329Z,4.30
2023-03-04T23:26:33.171Z,4.30
2023-03-04T23:29:04.960Z,4.30
2023-03-04T23:31:34.139Z,4.20
2023-03-04T23:34:03.245Z,4.30
2023-03-04T23:36:33.328Z,4.30
2023-03-04T23:39:01.995Z,4.30
2023-03-04T23:41:32.763Z,4.30
2023-03-04T23:44:02.481Z,4.20
2023-03-04T23:46:30.909Z,4.30
2023-03-04T23:48:59.044Z,4.30
2023-03-04T23:51:28.662Z,4.20
2023-03-04T23:53:57.709Z,4.30
2023-03-04T23:56:27.715Z,4.30
2023-03-04T23:58:56.442Z,4.40
